createdAt,value
2018-05-02T00:00:31.959Z,52.18
2018-05-02T00:01:31.963Z,52.21
2018-05-02T00:02:32.067Z,52.23
2018-05-02T00:03:31.911Z,52.18
2018-05-02T00:04:32.028Z,52.16
2018-05-02T00:05:31.838Z,52.19
2018-05-02T00:06:32.009Z,52.19
2018-05-02T00:07:32.022Z,52.17
2018-05-02T00:08:32.086Z,52.16
2018-05-02T00:09:31.906Z,52.15
2018-05-02T00:10:32.023Z,52.2
2018-05-02T00:11:31.933Z,52.16
2018-05-02T00:12:32.018Z,52.16
2018-05-02T00:13:32.007Z,52.18
2018-05-02T00:14:32.044Z,52.17
2018-05-02T00:15:32.008Z,52.18
2018-05-02T00:16:31.890Z,52.14
2018-05-02T00:17:31.838Z,52.18
2018-05-02T00:18:31.856Z,52.1
2018-05-02T00:19:32.030Z,52.16
2018-05-02T00:20:31.891Z,52.21
2018-05-02T00:21:31.919Z,52.19
2018-05-02T00:22:32.114Z,52.18
2018-05-02T00:23:32.025Z,52.12
2018-05-02T00:24:31.836Z,52.19
2018-05-02T00:25:55.609Z,52.13
2018-05-02T00:26:31.929Z,52.14
2018-05-02T00:27:31.983Z,52.15
2018-05-02T00:28:32.559Z,52.17
2018-05-02T00:29:32.057Z,52.18
2018-05-02T00:30:32.038Z,52.14
2018-05-02T00:31:31.977Z,52.1
2018-05-02T00:32:31.950Z,52.18
2018-05-02T00:33:31.873Z,52.12
2018-05-02T00:34:32.101Z,52.13
2018-05-02T00:35:31.907Z,52.16
2018-05-02T00:36:32.026Z,52.13
2018-05-02T00:37:31.866Z,52.14
2018-05-02T00:38:31.847Z,52.18
2018-05-02T00:39:31.955Z,52.12
2018-05-02T00:40:32.053Z,52.09
2018-05-02T00:41:32.001Z,52.13
2018-05-02T00:42:32.112Z,52.12
2018-05-02T00:43:31.999Z,52.07
2018-05-02T00:44:32.045Z,52.1
2018-05-02T00:45:31.877Z,52.16
2018-05-02T00:46:31.854Z,52.17
2018-05-02T00:47:32.027Z,52.1
2018-05-02T00:48:31.917Z,52.12
2018-05-02T00:49:32.087Z,52.15
2018-05-02T00:50:31.891Z,52.13
2018-05-02T00:51:31.890Z,52.1
2018-05-02T00:52:32.090Z,52.14
2018-05-02T00:53:31.980Z,52.18
2018-05-02T00:54:31.885Z,52.12
2018-05-02T00:55:31.805Z,52.12
2018-05-02T00:56:31.982Z,52.16
2018-05-02T00:57:32.316Z,52.1
2018-05-02T00:58:31.891Z,52.16
2018-05-02T00:59:32.033Z,52.12
2018-05-02T01:00:32.266Z,52.1
2018-05-02T01:01:31.911Z,52.11
2018-05-02T01:02:31.879Z,52.18
2018-05-02T01:03:31.781Z,52.1
2018-05-02T01:04:32.109Z,52.13
2018-05-02T01:05:31.869Z,52.13
2018-05-02T01:06:31.999Z,52.12
2018-05-02T01:07:31.945Z,52.15
2018-05-02T01:08:31.952Z,52.15
2018-05-02T01:09:31.910Z,52.14
2018-05-02T01:10:31.849Z,52.12
2018-05-02T01:11:32.021Z,52.17
2018-05-02T01:12:31.998Z,52.11
2018-05-02T01:13:31.916Z,52.17
2018-05-02T01:14:32.042Z,52.17
2018-05-02T01:15:31.992Z,52.15
2018-05-02T01:16:31.904Z,52.16
2018-05-02T01:17:31.944Z,52.1
2018-05-02T01:18:31.986Z,52.12
2018-05-02T01:19:32.015Z,52.12
2018-05-02T01:20:32.052Z,52.17
2018-05-02T01:21:31.896Z,52.09
2018-05-02T01:22:31.929Z,52.12
2018-05-02T01:23:31.925Z,52.07
2018-05-02T01:24:31.858Z,52.1
2018-05-02T01:25:32.053Z,52.16
2018-05-02T01:26:31.828Z,52.16
2018-05-02T01:27:31.823Z,52.12
2018-05-02T01:28:31.901Z,52.09
2018-05-02T01:29:31.851Z,52.13
2018-05-02T01:30:31.933Z,52.11
2018-05-02T01:31:32.021Z,52.12
2018-05-02T01:32:32.222Z,52.12
2018-05-02T01:33:31.930Z,52.06
2018-05-02T01:34:31.956Z,52.14
2018-05-02T01:35:32.071Z,52.09
2018-05-02T01:36:31.950Z,52.1
2018-05-02T01:37:31.934Z,52.1
2018-05-02T01:38:31.798Z,52.14
2018-05-02T01:39:31.845Z,52.08
2018-05-02T01:40:31.899Z,52.04
2018-05-02T01:41:31.901Z,52.07
2018-05-02T01:42:31.972Z,52.08
2018-05-02T01:43:31.952Z,52.07
2018-05-02T01:44:31.928Z,52.1
2018-05-02T01:45:31.976Z,52.05
2018-05-02T01:46:31.963Z,52.15
2018-05-02T01:47:31.874Z,52.11
2018-05-02T01:48:31.852Z,52.06
2018-05-02T01:49:31.882Z,52.12
2018-05-02T01:50:31.950Z,52.08
2018-05-02T01:51:31.957Z,52.06
2018-05-02T01:52:31.871Z,52.03
2018-05-02T01:53:31.789Z,52.11
2018-05-02T01:54:31.957Z,52.07
2018-05-02T01:55:31.921Z,52.05
2018-05-02T01:56:31.828Z,52.08
2018-05-02T01:57:31.816Z,52.08
2018-05-02T01:58:31.917Z,52.08
2018-05-02T01:59:31.941Z,52.11
2018-05-02T02:00:31.818Z,52.04
2018-05-02T02:01:31.982Z,52.09
2018-05-02T02:02:32.009Z,52.1
2018-05-02T02:03:31.824Z,52.05
2018-05-02T02:04:32.029Z,52.06
2018-05-02T02:05:31.955Z,52.07
2018-05-02T02:06:31.908Z,52.03
2018-05-02T02:07:31.913Z,52.04
2018-05-02T02:08:31.886Z,52.05
2018-05-02T02:09:31.972Z,52.04
2018-05-02T02:10:32.002Z,52.08
2018-05-02T02:11:31.836Z,52.05
2018-05-02T02:12:31.940Z,52.02
2018-05-02T02:13:32.017Z,52.06
2018-05-02T02:14:31.962Z,52.03
2018-05-02T02:15:31.883Z,52.02
2018-05-02T02:16:31.853Z,52.05
2018-05-02T02:17:31.831Z,52.09
2018-05-02T02:18:31.775Z,52.02
2018-05-02T02:19:31.865Z,52.07
2018-05-02T02:20:31.880Z,52.04
2018-05-02T02:21:31.817Z,52.04
2018-05-02T02:22:31.939Z,52.06
2018-05-02T02:23:32.147Z,52.06
2018-05-02T02:24:31.924Z,52.04
2018-05-02T02:25:31.909Z,52.06
2018-05-02T02:26:32.041Z,52.07
2018-05-02T02:27:31.953Z,52.04
2018-05-02T02:28:32.163Z,52.08
2018-05-02T02:29:31.873Z,52.05
2018-05-02T02:30:32.019Z,52.03
2018-05-02T02:31:31.952Z,52.08
2018-05-02T02:32:31.962Z,52.05
2018-05-02T02:33:31.822Z,52.04
2018-05-02T02:34:32.114Z,52.08
2018-05-02T02:35:32.004Z,52.06
2018-05-02T02:36:32.029Z,52.03
2018-05-02T02:37:31.894Z,52.03
2018-05-02T02:38:31.816Z,52.04
2018-05-02T02:39:31.912Z,52.04
2018-05-02T02:40:31.973Z,52.03
2018-05-02T02:41:32.070Z,52.05
2018-05-02T02:42:32.076Z,52.01
2018-05-02T02:43:31.943Z,52.03
2018-05-02T02:44:32.017Z,52.02
2018-05-02T02:45:31.884Z,52.04
2018-05-02T02:46:32.035Z,52
2018-05-02T02:47:32.010Z,52.06
2018-05-02T02:48:32.084Z,52
2018-05-02T02:49:31.917Z,51.99
2018-05-02T02:50:32.048Z,52.03
2018-05-02T02:51:31.936Z,51.96
2018-05-02T02:52:32.046Z,52.02
2018-05-02T02:53:31.925Z,51.99
2018-05-02T02:54:31.956Z,52.01
2018-05-02T02:55:31.893Z,52.02
2018-05-02T02:56:31.952Z,52.01
2018-05-02T02:57:31.954Z,52.01
2018-05-02T02:58:32.021Z,51.94
2018-05-02T02:59:32.035Z,51.96
2018-05-02T03:00:31.935Z,52
2018-05-02T03:01:31.990Z,51.97
2018-05-02T03:02:31.901Z,52.05
2018-05-02T03:03:32.028Z,51.97
2018-05-02T03:04:32.114Z,52.04
2018-05-02T03:05:32.064Z,51.96
2018-05-02T03:06:31.878Z,51.93
2018-05-02T03:07:31.845Z,51.96
2018-05-02T03:08:55.481Z,51.96
2018-05-02T03:09:31.831Z,51.99
2018-05-02T03:10:33.485Z,52
2018-05-02T03:11:32.217Z,52
2018-05-02T03:12:33.676Z,51.95
2018-05-02T03:13:31.934Z,51.95
2018-05-02T03:14:33.594Z,51.98
2018-05-02T03:15:33.486Z,51.94
2018-05-02T03:16:32.070Z,52
2018-05-02T03:17:31.964Z,51.98
2018-05-02T03:18:33.706Z,51.94
2018-05-02T03:19:33.776Z,51.99
2018-05-02T03:20:33.262Z,51.99
2018-05-02T03:21:31.866Z,52
2018-05-02T03:22:32.083Z,52
2018-05-02T03:23:33.771Z,52
2018-05-02T03:24:33.750Z,51.97
2018-05-02T03:25:31.862Z,51.99
2018-05-02T03:26:31.968Z,51.96
2018-05-02T03:27:31.886Z,51.95
2018-05-02T03:28:31.873Z,51.94
2018-05-02T03:29:31.822Z,51.99
2018-05-02T03:30:32.031Z,51.94
2018-05-02T03:31:31.987Z,51.96
2018-05-02T03:32:32.032Z,51.98
2018-05-02T03:33:31.920Z,51.95
2018-05-02T03:34:31.899Z,52
2018-05-02T03:35:31.863Z,51.99
2018-05-02T03:36:31.959Z,51.92
2018-05-02T03:37:32.023Z,51.92
2018-05-02T03:38:31.821Z,51.95
2018-05-02T03:39:31.791Z,51.93
2018-05-02T03:40:31.896Z,51.97
2018-05-02T03:41:31.923Z,51.94
2018-05-02T03:42:31.841Z,51.94
2018-05-02T03:43:31.952Z,51.95
2018-05-02T03:44:31.911Z,51.96
2018-05-02T03:45:31.958Z,51.92
2018-05-02T03:46:31.779Z,51.91
2018-05-02T03:47:31.813Z,51.95
2018-05-02T03:48:31.886Z,51.89
2018-05-02T03:49:31.861Z,51.96
2018-05-02T03:50:31.853Z,51.97
2018-05-02T03:51:31.799Z,51.92
2018-05-02T03:52:31.980Z,51.96
2018-05-02T03:53:31.865Z,51.96
2018-05-02T03:54:31.819Z,51.94
2018-05-02T03:55:31.892Z,51.98
2018-05-02T03:56:31.804Z,51.97
2018-05-02T03:57:31.770Z,51.9
2018-05-02T03:58:31.832Z,51.96
2018-05-02T03:59:31.913Z,51.9
2018-05-02T04:00:31.855Z,51.89
2018-05-02T04:01:31.833Z,51.91
2018-05-02T04:02:31.948Z,51.91
2018-05-02T04:03:31.893Z,51.92
2018-05-02T04:04:31.873Z,51.97
2018-05-02T04:05:31.894Z,51.95
2018-05-02T04:06:31.964Z,51.89
2018-05-02T04:07:31.999Z,51.9
2018-05-02T04:08:32.527Z,51.9
2018-05-02T04:09:31.746Z,51.89
2018-05-02T04:10:32.003Z,51.97
2018-05-02T04:11:31.804Z,51.95
2018-05-02T04:12:31.813Z,51.89
2018-05-02T04:13:31.952Z,51.93
2018-05-02T04:14:31.935Z,51.93
2018-05-02T04:15:31.867Z,51.9
2018-05-02T04:16:31.936Z,51.92
2018-05-02T04:17:31.826Z,51.91
2018-05-02T04:18:31.850Z,51.89
2018-05-02T04:19:32.028Z,51.94
2018-05-02T04:20:31.930Z,51.95
2018-05-02T04:21:31.924Z,51.87
2018-05-02T04:22:31.942Z,51.94
2018-05-02T04:23:31.887Z,51.95
2018-05-02T04:24:31.865Z,51.88
2018-05-02T04:25:31.786Z,51.88
2018-05-02T04:26:31.957Z,51.89
2018-05-02T04:27:31.939Z,51.86
2018-05-02T04:28:31.824Z,51.93
2018-05-02T04:29:32.017Z,51.9
2018-05-02T04:30:31.763Z,51.87
2018-05-02T04:31:31.942Z,51.9
2018-05-02T04:32:31.820Z,51.9
2018-05-02T04:33:31.825Z,51.85
2018-05-02T04:34:32.023Z,51.89
2018-05-02T04:35:31.852Z,51.88
2018-05-02T04:36:31.844Z,51.88
2018-05-02T04:37:31.906Z,51.85
2018-05-02T04:38:31.886Z,51.86
2018-05-02T04:39:31.922Z,51.9
2018-05-02T04:40:31.968Z,51.93
2018-05-02T04:41:33.679Z,51.89
2018-05-02T04:42:31.916Z,51.86
2018-05-02T04:43:32.009Z,51.87
2018-05-02T04:44:33.549Z,51.88
2018-05-02T04:45:33.434Z,51.89
2018-05-02T04:46:33.536Z,51.93
2018-05-02T04:47:31.806Z,51.88
2018-05-02T04:48:31.855Z,51.86
2018-05-02T04:49:33.614Z,51.83
2018-05-02T04:50:33.311Z,51.85
2018-05-02T04:51:33.318Z,51.82
2018-05-02T04:52:31.905Z,51.85
2018-05-02T04:53:33.765Z,51.87
2018-05-02T04:54:33.741Z,51.82
2018-05-02T04:55:33.680Z,51.87
2018-05-02T04:56:31.818Z,51.87
2018-05-02T04:57:33.826Z,51.84
2018-05-02T04:58:33.410Z,51.83
2018-05-02T04:59:34.308Z,51.82
2018-05-02T05:00:33.427Z,51.85
2018-05-02T05:01:33.392Z,51.8
2018-05-02T05:02:33.384Z,51.85
2018-05-02T05:03:33.384Z,51.81
2018-05-02T05:04:33.450Z,51.84
2018-05-02T05:05:33.388Z,51.85
2018-05-02T05:06:34.118Z,51.83
2018-05-02T05:07:33.660Z,51.85
2018-05-02T05:08:33.697Z,51.86
2018-05-02T05:09:33.723Z,51.82
2018-05-02T05:10:33.592Z,51.87
2018-05-02T05:11:33.570Z,51.82
2018-05-02T05:12:31.976Z,51.78
2018-05-02T05:13:33.536Z,51.86
2018-05-02T05:14:31.864Z,51.81
2018-05-02T05:15:31.909Z,51.79
2018-05-02T05:16:33.482Z,51.83
2018-05-02T05:17:33.597Z,51.83
2018-05-02T05:18:33.603Z,51.78
2018-05-02T05:19:33.457Z,51.84
2018-05-02T05:20:33.373Z,51.86
2018-05-02T05:21:33.339Z,51.81
2018-05-02T05:22:33.400Z,51.86
2018-05-02T05:23:33.430Z,51.8
2018-05-02T05:24:33.494Z,51.81
2018-05-02T05:25:33.381Z,51.87
2018-05-02T05:26:33.235Z,51.85
2018-05-02T05:27:33.623Z,51.82
2018-05-02T05:28:33.847Z,51.85
2018-05-02T05:29:33.437Z,51.82
2018-05-02T05:30:33.480Z,51.81
2018-05-02T05:31:33.719Z,51.89
2018-05-02T05:32:33.630Z,51.85
2018-05-02T05:33:32.115Z,51.86
2018-05-02T05:34:33.668Z,51.87
2018-05-02T05:35:33.716Z,51.84
2018-05-02T05:36:33.781Z,51.84
2018-05-02T05:37:33.292Z,51.9
2018-05-02T05:38:32.530Z,51.82
2018-05-02T05:39:33.326Z,51.84
2018-05-02T05:40:33.749Z,51.83
2018-05-02T05:41:33.688Z,51.85
2018-05-02T05:42:33.497Z,51.83
2018-05-02T05:43:33.965Z,51.88
2018-05-02T05:44:32.523Z,51.82
2018-05-02T05:45:32.705Z,51.86
2018-05-02T05:46:32.526Z,51.87
2018-05-02T05:47:32.466Z,51.87
2018-05-02T05:48:32.499Z,51.84
2018-05-02T05:49:32.486Z,51.86
2018-05-02T05:50:32.513Z,51.86
2018-05-02T05:51:32.393Z,51.81
2018-05-02T05:52:33.134Z,51.85
2018-05-02T05:53:32.729Z,51.86
2018-05-02T05:54:33.863Z,51.84
2018-05-02T05:55:32.735Z,51.86
2018-05-02T05:56:32.551Z,51.88
2018-05-02T05:57:31.822Z,51.89
2018-05-02T05:58:31.873Z,51.86
2018-05-02T05:59:31.909Z,51.88
2018-05-02T06:00:32.012Z,51.8
2018-05-02T06:01:31.801Z,51.89
2018-05-02T06:02:31.956Z,51.85
2018-05-02T06:03:32.034Z,51.87
2018-05-02T06:04:31.719Z,51.89
2018-05-02T06:05:31.968Z,51.88
2018-05-02T06:06:31.901Z,51.92
2018-05-02T06:07:31.825Z,51.91
2018-05-02T06:08:31.865Z,51.83
2018-05-02T06:09:31.855Z,51.8
2018-05-02T06:10:31.940Z,51.89
2018-05-02T06:11:31.804Z,51.88
2018-05-02T06:12:31.922Z,51.84
2018-05-02T06:13:31.908Z,51.89
2018-05-02T06:14:31.724Z,51.88
2018-05-02T06:15:31.959Z,51.83
2018-05-02T06:16:31.678Z,51.85
2018-05-02T06:17:31.682Z,51.86
2018-05-02T06:18:31.718Z,51.86
2018-05-02T06:19:31.920Z,51.86
2018-05-02T06:20:31.932Z,51.83
2018-05-02T06:21:32.024Z,51.84
2018-05-02T06:22:31.710Z,51.88
2018-05-02T06:23:31.903Z,51.9
2018-05-02T06:24:31.799Z,51.87
2018-05-02T06:25:31.901Z,51.9
2018-05-02T06:26:31.927Z,51.84
2018-05-02T06:27:31.904Z,51.84
2018-05-02T06:28:31.671Z,51.84
2018-05-02T06:29:31.755Z,51.86
2018-05-02T06:30:31.712Z,51.86
2018-05-02T06:31:31.746Z,51.88
2018-05-02T06:32:31.769Z,51.83
2018-05-02T06:33:31.860Z,51.89
2018-05-02T06:34:31.769Z,51.83
2018-05-02T06:35:31.815Z,51.86
2018-05-02T06:36:31.748Z,51.82
2018-05-02T06:37:32.114Z,51.88
2018-05-02T06:38:31.919Z,51.87
2018-05-02T06:39:31.956Z,51.85
2018-05-02T06:40:31.908Z,51.91
2018-05-02T06:41:31.821Z,51.88
2018-05-02T06:42:31.772Z,51.9
2018-05-02T06:43:33.043Z,51.87
2018-05-02T06:44:32.610Z,51.86
2018-05-02T06:45:31.845Z,51.83
2018-05-02T06:46:31.796Z,51.88
2018-05-02T06:47:31.806Z,51.87
2018-05-02T06:48:31.984Z,51.86
2018-05-02T06:49:31.843Z,51.91
2018-05-02T06:50:31.814Z,51.93
2018-05-02T06:51:31.791Z,51.84
2018-05-02T06:52:31.842Z,51.88
2018-05-02T06:53:31.929Z,51.86
2018-05-02T06:54:31.965Z,51.85
2018-05-02T06:55:31.821Z,51.88
2018-05-02T06:56:31.818Z,51.9
2018-05-02T06:57:31.814Z,51.85
2018-05-02T06:58:31.832Z,51.88
2018-05-02T06:59:31.993Z,51.84
2018-05-02T07:00:31.957Z,51.87
2018-05-02T07:01:31.848Z,51.91
2018-05-02T07:02:31.912Z,51.87
2018-05-02T07:03:31.907Z,51.87
2018-05-02T07:04:31.761Z,51.95
2018-05-02T07:05:32.043Z,51.89
2018-05-02T07:06:31.835Z,51.93
2018-05-02T07:07:31.789Z,51.91
2018-05-02T07:08:31.770Z,51.82
2018-05-02T07:09:31.950Z,52.07
2018-05-02T07:10:31.865Z,52.09
2018-05-02T07:11:31.815Z,52
2018-05-02T07:12:31.821Z,52
2018-05-02T07:13:32.326Z,51.94
2018-05-02T07:14:32.037Z,51.88
2018-05-02T07:15:32.066Z,51.91
2018-05-02T07:16:31.811Z,51.86
2018-05-02T07:17:31.814Z,51.8
2018-05-02T07:18:31.867Z,51.67
2018-05-02T07:19:31.931Z,51.71
2018-05-02T07:20:31.850Z,51.66
2018-05-02T07:21:31.837Z,51.69
2018-05-02T07:22:31.907Z,51.79
2018-05-02T07:23:31.800Z,51.8
2018-05-02T07:24:31.776Z,51.79
2018-05-02T07:25:31.872Z,51.81
2018-05-02T07:26:31.813Z,51.85
2018-05-02T07:27:31.993Z,51.83
2018-05-02T07:28:31.831Z,51.8
2018-05-02T07:29:31.842Z,51.81
2018-05-02T07:30:31.941Z,51.8
2018-05-02T07:31:31.701Z,51.85
2018-05-02T07:32:33.222Z,51.83
2018-05-02T07:33:31.795Z,51.83
2018-05-02T07:34:31.689Z,51.84
2018-05-02T07:35:31.871Z,51.85
2018-05-02T07:36:31.936Z,51.81
2018-05-02T07:37:31.830Z,51.86
2018-05-02T07:38:31.798Z,51.85
2018-05-02T07:39:31.944Z,51.83
2018-05-02T07:40:31.959Z,51.86
2018-05-02T07:41:31.997Z,51.88
2018-05-02T07:42:31.715Z,51.84
2018-05-02T07:43:31.709Z,51.9
2018-05-02T07:44:31.831Z,51.85
2018-05-02T07:45:31.950Z,51.81
2018-05-02T07:46:31.834Z,51.86
2018-05-02T07:47:31.841Z,51.88
2018-05-02T07:48:32.270Z,51.82
2018-05-02T07:49:31.733Z,51.86
2018-05-02T07:50:31.828Z,51.85
2018-05-02T07:51:31.819Z,51.83
2018-05-02T07:52:31.772Z,51.86
2018-05-02T07:53:31.772Z,51.82
2018-05-02T07:54:31.913Z,51.82
2018-05-02T07:55:31.709Z,51.82
2018-05-02T07:56:32.549Z,51.75
2018-05-02T07:57:31.929Z,51.78
2018-05-02T07:58:31.831Z,51.8
2018-05-02T07:59:31.676Z,51.81
2018-05-02T08:00:31.694Z,51.82
2018-05-02T08:01:31.791Z,51.87
2018-05-02T08:02:31.721Z,51.85
2018-05-02T08:03:31.833Z,51.85
2018-05-02T08:04:31.905Z,51.85
2018-05-02T08:05:31.769Z,51.87
2018-05-02T08:06:31.913Z,51.85
2018-05-02T08:07:31.871Z,51.83
2018-05-02T08:08:31.801Z,51.89
2018-05-02T08:09:31.711Z,51.78
2018-05-02T08:10:31.958Z,51.87
2018-05-02T08:11:31.734Z,51.8
2018-05-02T08:12:31.725Z,51.83
2018-05-02T08:13:31.906Z,51.88
2018-05-02T08:14:32.064Z,51.86
2018-05-02T08:15:31.940Z,51.86
2018-05-02T08:16:32.786Z,51.89
2018-05-02T08:17:31.757Z,51.88
2018-05-02T08:18:31.785Z,51.82
2018-05-02T08:19:31.698Z,51.88
2018-05-02T08:20:31.830Z,51.87
2018-05-02T08:21:31.744Z,51.82
2018-05-02T08:22:31.833Z,51.88
2018-05-02T08:23:31.750Z,51.84
2018-05-02T08:24:31.863Z,51.82
2018-05-02T08:25:31.873Z,51.86
2018-05-02T08:26:31.781Z,51.91
2018-05-02T08:27:31.728Z,51.83
2018-05-02T08:28:31.825Z,51.9
2018-05-02T08:29:31.841Z,51.85
2018-05-02T08:30:31.717Z,51.86
2018-05-02T08:31:31.839Z,51.86
2018-05-02T08:32:31.907Z,51.85
2018-05-02T08:33:31.714Z,51.82
2018-05-02T08:34:31.858Z,51.91
2018-05-02T08:35:32.012Z,51.86
2018-05-02T08:36:31.815Z,51.84
2018-05-02T08:37:31.821Z,51.89
2018-05-02T08:38:31.791Z,51.83
2018-05-02T08:39:31.899Z,51.85
2018-05-02T08:40:31.965Z,51.9
2018-05-02T08:41:31.915Z,51.85
2018-05-02T08:42:31.939Z,51.89
2018-05-02T08:43:31.833Z,51.9
2018-05-02T08:44:31.766Z,51.86
2018-05-02T08:45:31.848Z,51.86
2018-05-02T08:46:31.731Z,51.9
2018-05-02T08:47:31.845Z,51.86
2018-05-02T08:48:31.740Z,51.88
2018-05-02T08:49:31.827Z,51.87
2018-05-02T08:50:31.717Z,51.86
2018-05-02T08:51:31.832Z,51.88
2018-05-02T08:52:31.864Z,51.99
2018-05-02T08:53:31.885Z,51.95
2018-05-02T08:54:31.831Z,51.94
2018-05-02T08:55:31.778Z,52
2018-05-02T08:56:31.760Z,51.94
2018-05-02T08:57:32.397Z,51.87
2018-05-02T08:58:31.888Z,51.94
2018-05-02T08:59:31.747Z,51.88
2018-05-02T09:00:31.830Z,51.84
2018-05-02T09:01:31.864Z,51.87
2018-05-02T09:02:31.711Z,51.91
2018-05-02T09:03:31.860Z,51.83
2018-05-02T09:04:31.800Z,51.91
2018-05-02T09:05:31.845Z,51.89
2018-05-02T09:06:31.882Z,51.89
2018-05-02T09:07:31.746Z,51.93
2018-05-02T09:08:31.869Z,51.86
2018-05-02T09:09:31.755Z,51.85
2018-05-02T09:10:31.878Z,51.94
2018-05-02T09:11:31.745Z,51.85
2018-05-02T09:12:31.675Z,51.86
2018-05-02T09:13:31.913Z,51.92
2018-05-02T09:14:31.817Z,51.93
2018-05-02T09:15:32.453Z,51.91
2018-05-02T09:16:31.810Z,51.91
2018-05-02T09:17:31.651Z,51.93
2018-05-02T09:18:31.680Z,51.89
2018-05-02T09:19:31.903Z,51.9
2018-05-02T09:20:31.766Z,51.88
2018-05-02T09:21:31.714Z,51.87
2018-05-02T09:22:31.750Z,51.91
2018-05-02T09:23:31.942Z,51.89
2018-05-02T09:24:31.581Z,51.89
2018-05-02T09:25:31.904Z,51.94
2018-05-02T09:26:31.866Z,51.91
2018-05-02T09:27:31.814Z,51.84
2018-05-02T09:28:31.893Z,51.9
2018-05-02T09:29:31.699Z,51.91
2018-05-02T09:30:31.852Z,51.87
2018-05-02T09:31:32.037Z,51.92
2018-05-02T09:32:31.804Z,51.88
2018-05-02T09:33:31.835Z,51.91
2018-05-02T09:34:31.729Z,51.92
2018-05-02T09:35:32.224Z,51.85
2018-05-02T09:36:31.689Z,51.88
2018-05-02T09:37:31.675Z,51.92
2018-05-02T09:38:31.725Z,51.89
2018-05-02T09:39:31.785Z,51.82
2018-05-02T09:40:31.756Z,51.96
2018-05-02T09:41:31.783Z,51.85
2018-05-02T09:42:31.758Z,51.89
2018-05-02T09:43:31.758Z,51.9
2018-05-02T09:44:31.811Z,51.89
2018-05-02T09:45:31.615Z,51.89
2018-05-02T09:46:31.975Z,51.9
2018-05-02T09:47:31.821Z,51.86
2018-05-02T09:48:31.768Z,51.83
2018-05-02T09:49:31.699Z,51.93
2018-05-02T09:50:31.812Z,51.83
2018-05-02T09:51:31.807Z,51.86
2018-05-02T09:52:31.730Z,51.87
2018-05-02T09:53:31.819Z,51.89
2018-05-02T09:54:31.669Z,51.83
2018-05-02T09:55:31.647Z,51.91
2018-05-02T09:56:31.677Z,51.85
2018-05-02T09:57:31.757Z,51.83
2018-05-02T09:58:31.831Z,51.9
2018-05-02T09:59:31.798Z,51.94
2018-05-02T10:00:31.895Z,51.89
2018-05-02T10:01:31.526Z,51.89
2018-05-02T10:02:31.780Z,51.87
2018-05-02T10:03:31.939Z,51.81
2018-05-02T10:04:32.662Z,51.94
2018-05-02T10:05:31.852Z,51.92
2018-05-02T10:06:31.795Z,51.84
2018-05-02T10:07:31.741Z,51.87
2018-05-02T10:08:31.766Z,51.84
2018-05-02T10:09:31.815Z,51.84
2018-05-02T10:10:31.672Z,51.88
2018-05-02T10:11:31.754Z,51.9
2018-05-02T10:12:32.311Z,51.82
2018-05-02T10:13:31.829Z,51.92
2018-05-02T10:14:31.819Z,51.83
2018-05-02T10:15:32.108Z,51.79
2018-05-02T10:16:31.741Z,51.87
2018-05-02T10:17:31.805Z,51.75
2018-05-02T10:18:32.497Z,51.84
2018-05-02T10:19:31.648Z,51.9
2018-05-02T10:20:31.859Z,51.85
2018-05-02T10:21:31.666Z,51.79
2018-05-02T10:22:31.790Z,51.89
2018-05-02T10:23:31.804Z,51.82
2018-05-02T10:24:31.678Z,51.82
2018-05-02T10:25:31.643Z,51.88
2018-05-02T10:26:31.620Z,51.87
2018-05-02T10:27:31.905Z,51.81
2018-05-02T10:28:31.872Z,51.84
2018-05-02T10:29:31.643Z,51.84
2018-05-02T10:30:31.748Z,51.88
2018-05-02T10:31:31.603Z,51.92
2018-05-02T10:32:31.839Z,51.95
2018-05-02T10:33:31.852Z,51.89
2018-05-02T10:34:31.676Z,51.95
2018-05-02T10:35:31.683Z,51.87
2018-05-02T10:36:31.784Z,51.84
2018-05-02T10:37:31.850Z,51.84
2018-05-02T10:38:31.633Z,51.81
2018-05-02T10:39:31.823Z,51.77
2018-05-02T10:40:31.652Z,51.82
2018-05-02T10:41:31.743Z,51.79
2018-05-02T10:42:31.759Z,51.81
2018-05-02T10:43:31.662Z,51.86
2018-05-02T10:44:31.825Z,51.78
2018-05-02T10:45:31.793Z,51.79
2018-05-02T10:46:31.706Z,51.89
2018-05-02T10:47:31.847Z,51.89
2018-05-02T10:48:31.731Z,51.81
2018-05-02T10:49:31.816Z,51.85
2018-05-02T10:50:32.433Z,51.78
2018-05-02T10:51:31.666Z,51.78
2018-05-02T10:52:31.825Z,51.83
2018-05-02T10:53:31.827Z,51.77
2018-05-02T10:54:31.839Z,51.78
2018-05-02T10:55:31.825Z,51.84
2018-05-02T10:56:31.760Z,51.75
2018-05-02T10:57:31.794Z,51.73
2018-05-02T10:58:31.772Z,51.8
2018-05-02T10:59:31.823Z,51.73
2018-05-02T11:00:31.669Z,51.74
2018-05-02T11:01:31.636Z,51.72
2018-05-02T11:02:31.737Z,51.76
2018-05-02T11:03:31.701Z,51.71
2018-05-02T11:04:31.835Z,51.78
2018-05-02T11:05:31.816Z,51.74
2018-05-02T11:06:31.673Z,51.71
2018-05-02T11:07:31.849Z,51.74
2018-05-02T11:08:31.840Z,51.72
2018-05-02T11:09:31.838Z,51.71
2018-05-02T11:10:31.698Z,51.78
2018-05-02T11:11:31.889Z,51.72
2018-05-02T11:12:31.684Z,51.72
2018-05-02T11:13:31.791Z,51.78
2018-05-02T11:14:31.646Z,51.7
2018-05-02T11:15:31.679Z,51.69
2018-05-02T11:16:31.654Z,51.77
2018-05-02T11:17:31.807Z,51.7
2018-05-02T11:18:31.937Z,51.71
2018-05-02T11:19:31.669Z,51.76
2018-05-02T11:20:31.768Z,51.68
2018-05-02T11:21:31.589Z,51.71
2018-05-02T11:22:31.699Z,51.72
2018-05-02T11:23:31.997Z,51.74
2018-05-02T11:24:31.834Z,51.65
2018-05-02T11:25:31.744Z,51.73
2018-05-02T11:26:31.844Z,51.67
2018-05-02T11:27:31.705Z,51.59
2018-05-02T11:28:32.047Z,51.68
2018-05-02T11:29:31.904Z,51.67
2018-05-02T11:30:31.650Z,51.66
2018-05-02T11:31:31.634Z,51.72
2018-05-02T11:32:31.871Z,51.72
2018-05-02T11:33:31.681Z,51.67
2018-05-02T11:34:31.710Z,51.77
2018-05-02T11:35:31.878Z,51.71
2018-05-02T11:36:31.823Z,51.7
2018-05-02T11:37:31.905Z,51.85
2018-05-02T11:38:31.764Z,51.76
2018-05-02T11:39:31.770Z,51.76
2018-05-02T11:40:32.292Z,51.81
2018-05-02T11:41:31.647Z,51.74
2018-05-02T11:42:31.728Z,51.74
2018-05-02T11:43:31.739Z,51.78
2018-05-02T11:44:31.693Z,51.72
2018-05-02T11:45:31.652Z,51.74
2018-05-02T11:46:31.679Z,51.79
2018-05-02T11:47:31.622Z,51.74
2018-05-02T11:48:31.860Z,51.74
2018-05-02T11:49:31.645Z,51.77
2018-05-02T11:50:31.619Z,51.65
2018-05-02T11:51:31.889Z,51.68
2018-05-02T11:52:31.739Z,51.69
2018-05-02T11:53:31.985Z,51.67
2018-05-02T11:54:31.796Z,51.64
2018-05-02T11:55:31.831Z,51.71
2018-05-02T11:56:31.776Z,51.62
2018-05-02T11:57:31.715Z,51.65
2018-05-02T11:58:31.855Z,51.72
2018-05-02T11:59:31.814Z,51.63
2018-05-02T12:00:31.835Z,51.74
2018-05-02T12:01:31.913Z,51.77
2018-05-02T12:02:32.383Z,51.69
2018-05-02T12:03:32.388Z,51.65
2018-05-02T12:04:31.741Z,51.76
2018-05-02T12:05:31.836Z,51.66
2018-05-02T12:06:31.716Z,51.73
2018-05-02T12:07:31.633Z,51.82
2018-05-02T12:08:31.840Z,51.72
2018-05-02T12:09:31.619Z,51.67
2018-05-02T12:10:32.589Z,51.77
2018-05-02T12:11:31.687Z,51.68
2018-05-02T12:12:31.742Z,51.7
2018-05-02T12:13:31.716Z,51.74
2018-05-02T12:14:31.745Z,51.67
2018-05-02T12:15:31.754Z,51.65
2018-05-02T12:16:31.662Z,51.69
2018-05-02T12:17:31.575Z,51.71
2018-05-02T12:18:31.652Z,51.67
2018-05-02T12:19:31.730Z,51.67
2018-05-02T12:20:31.691Z,51.66
2018-05-02T12:21:31.692Z,51.6
2018-05-02T12:22:31.723Z,51.72
2018-05-02T12:23:31.687Z,51.6
2018-05-02T12:24:31.797Z,51.64
2018-05-02T12:25:31.648Z,51.72
2018-05-02T12:26:31.804Z,51.59
2018-05-02T12:27:31.710Z,51.57
2018-05-02T12:28:31.800Z,51.67
2018-05-02T12:29:31.710Z,51.64
2018-05-02T12:30:31.676Z,51.61
2018-05-02T12:31:54.977Z,51.75
2018-05-02T12:32:31.590Z,51.68
2018-05-02T12:33:31.725Z,51.64
2018-05-02T12:34:31.763Z,51.77
2018-05-02T12:35:32.516Z,51.66
2018-05-02T12:36:31.735Z,51.65
2018-05-02T12:37:31.759Z,51.74
2018-05-02T12:38:31.897Z,51.69
2018-05-02T12:39:31.967Z,51.67
2018-05-02T12:40:31.644Z,51.65
2018-05-02T12:41:31.657Z,51.73
2018-05-02T12:42:31.964Z,51.64
2018-05-02T12:43:31.842Z,51.78
2018-05-02T12:44:31.577Z,51.73
2018-05-02T12:45:31.819Z,51.72
2018-05-02T12:46:31.865Z,51.77
2018-05-02T12:47:31.592Z,51.75
2018-05-02T12:48:31.798Z,51.73
2018-05-02T12:49:31.791Z,51.72
2018-05-02T12:50:31.678Z,51.75
2018-05-02T12:51:31.718Z,51.75
2018-05-02T12:52:31.609Z,51.72
2018-05-02T12:53:31.851Z,51.62
2018-05-02T12:54:31.713Z,51.67
2018-05-02T12:55:31.681Z,51.69